Time;durP1;ratioP1;P1;durP2;ratioP2;P2;SDS_P1;SDS_P2;PMS_P1;PMS_P2;Temp;Humidity;BMP_temperature;BMP_pressure;BME280_temperature;BME280_humidity;BME280_pressure;Samples;Min_cycle;Max_cycle;Signal;HPM_P1;HPM_P2
2023/08/24 00:01:03;;;;;;;1.73;0.60;;;;;;;18.64;100.00;100863.53;5041292;28;20539;-43
2023/08/24 00:03:28;;;;;;;1.35;0.50;;;;;;;18.61;100.00;100866.69;5038403;28;21044;-44
2023/08/24 00:05:54;;;;;;;2.05;0.57;;;;;;;18.45;100.00;100858.28;5034202;28;20064;-45
2023/08/24 00:08:19;;;;;;;0.40;0.20;;;;;;;18.39;100.00;100861.91;5031491;28;20155;-47
2023/08/24 00:10:47;;;;;;;1.83;0.20;;;;;;;18.41;100.00;100851.75;5034283;28;20132;-45
2023/08/24 00:13:14;;;;;;;0.85;0.60;;;;;;;18.49;100.00;100848.72;5044173;28;20041;-43
2023/08/24 00:15:39;;;;;;;2.70;0.17;;;;;;;18.46;100.00;100861.81;5032394;28;20120;-45
2023/08/24 00:18:06;;;;;;;2.20;0.40;;;;;;;18.48;100.00;100865.06;5038313;28;20120;-44
2023/08/24 00:20:34;;;;;;;3.65;0.50;;;;;;;18.53;100.00;100859.78;5031396;28;20029;-47
2023/08/24 00:23:00;;;;;;;1.85;0.47;;;;;;;18.52;100.00;100856.28;5036325;28;20550;-44
2023/08/24 00:25:26;;;;;;;2.35;0.40;;;;;;;18.39;100.00;100845.81;5039885;28;20076;-46
2023/08/24 00:27:54;;;;;;;0.60;0.60;;;;;;;18.57;100.00;100852.09;5053942;28;20112;-45
2023/08/24 00:30:20;;;;;;;1.70;0.30;;;;;;;18.61;100.00;100856.78;5034579;28;20041;-45
2023/08/24 00:32:46;;;;;;;0.63;0.40;;;;;;;18.46;100.00;100859.94;5037581;28;20036;-43
2023/08/24 00:35:11;;;;;;;1.02;0.22;;;;;;;18.44;100.00;100863.91;5036057;28;20059;-47
2023/08/24 00:37:37;;;;;;;0.63;0.25;;;;;;;18.48;100.00;100871.25;5040218;28;20115;-44
2023/08/24 00:40:08;;;;;;;2.00;0.73;;;;;;;18.40;100.00;100863.53;5032614;28;20095;-44
2023/08/24 00:42:33;;;;;;;0.57;0.20;;;;;;;18.41;100.00;100867.06;5043804;28;20485;-44
2023/08/24 00:44:59;;;;;;;0.70;0.25;;;;;;;18.47;100.00;100874.97;5036660;28;20050;-45
2023/08/24 00:47:24;;;;;;;0.57;0.30;;;;;;;18.49;100.00;100858.66;5028883;28;20553;-43
2023/08/24 00:49:50;;;;;;;3.90;0.63;;;;;;;18.41;100.00;100857.13;5041040;28;20038;-43
2023/08/24 00:52:17;;;;;;;2.17;0.70;;;;;;;18.33;100.00;100852.13;5038723;28;20039;-44
2023/08/24 00:54:42;;;;;;;1.65;0.60;;;;;;;18.12;100.00;100844.63;5032151;28;20474;-45
2023/08/24 00:57:08;;;;;;;0.57;0.30;;;;;;;18.09;100.00;100843.22;5030748;28;20036;-48
2023/08/24 00:59:34;;;;;;;0.50;0.47;;;;;;;18.12;100.00;100845.44;5033297;28;20030;-49
2023/08/24 01:02:00;;;;;;;0.70;0.30;;;;;;;18.15;100.00;100844.16;5032365;28;20045;-44
2023/08/24 01:04:25;;;;;;;2.80;0.60;;;;;;;18.10;100.00;100844.88;5028974;28;20033;-43
2023/08/24 01:06:52;;;;;;;0.77;0.32;;;;;;;18.07;100.00;100853.34;5032948;28;20041;-47
2023/08/24 01:09:19;;;;;;;1.33;0.30;;;;;;;17.97;100.00;100843.22;5043008;28;20045;-45
2023/08/24 01:12:02;;;;;;;0.75;0.75;;;;;;;17.94;100.00;100849.06;5037842;28;20078;-45
2023/08/24 01:14:40;;;;;;;1.60;0.40;;;;;;;17.92;100.00;100837.72;5033534;28;20064;-43
2023/08/24 01:17:09;;;;;;;1.80;0.40;;;;;;;17.89;100.00;100835.50;5028435;28;20405;-46
2023/08/24 01:19:45;;;;;;;0.95;0.22;;;;;;;17.83;100.00;100826.50;5043244;28;20081;-48
2023/08/24 01:22:31;;;;;;;0.45;0.15;;;;;;;17.82;100.00;100824.06;5031456;28;20033;-46
2023/08/24 01:25:37;;;;;;;1.75;0.80;;;;;;;17.78;100.00;100812.13;5033485;28;20429;-43
2023/08/24 01:28:05;;;;;;;1.23;1.02;;;;;;;17.74;100.00;100802.91;5027672;28;20950;-45
2023/08/24 01:30:31;;;;;;;1.67;0.50;;;;;;;17.77;100.00;100799.78;5031605;28;21546;-45
2023/08/24 01:32:56;;;;;;;2.03;1.05;;;;;;;17.77;100.00;100789.03;5033802;28;20580;-45
2023/08/24 01:35:21;;;;;;;0.95;0.52;;;;;;;17.72;100.00;100792.41;5034310;28;20061;-50
2023/08/24 01:37:47;;;;;;;1.00;0.22;;;;;;;17.78;100.00;100787.97;5031816;28;20021;-45
2023/08/24 01:40:12;;;;;;;4.00;0.60;;;;;;;17.83;100.00;100778.22;5036350;28;20032;-49
2023/08/24 01:42:54;;;;;;;1.50;1.00;;;;;;;17.84;100.00;100779.88;5028838;28;20025;-46
2023/08/24 01:45:24;;;;;;;1.58;0.40;;;;;;;17.84;100.00;100774.50;5036823;28;20352;-45
2023/08/24 01:47:52;;;;;;;0.88;0.30;;;;;;;17.89;100.00;100768.44;5032637;28;20235;-45
2023/08/24 01:50:17;;;;;;;1.05;0.82;;;;;;;17.95;100.00;100764.00;5036084;28;21114;-44
2023/08/24 01:52:43;;;;;;;1.95;1.02;;;;;;;18.02;100.00;100745.94;5035383;28;20021;-46
2023/08/24 01:55:08;;;;;;;1.33;0.52;;;;;;;17.99;100.00;100732.97;5030980;28;20056;-49
2023/08/24 01:57:33;;;;;;;3.47;0.65;;;;;;;17.95;100.00;100721.09;5030504;28;20033;-45
2023/08/24 01:59:59;;;;;;;0.30;0.13;;;;;;;17.92;100.00;100721.56;5040734;28;20440;-48
2023/08/24 02:02:24;;;;;;;0.52;0.30;;;;;;;17.89;100.00;100717.50;5034810;28;20445;-49
2023/08/24 02:04:50;;;;;;;2.10;1.15;;;;;;;17.84;100.00;100710.13;5035460;28;20444;-46
2023/08/24 02:07:16;;;;;;;4.40;1.02;;;;;;;17.78;100.00;100704.84;5031868;28;20079;-44
2023/08/24 02:09:41;;;;;;;2.22;1.40;;;;;;;17.76;100.00;100694.38;5032855;28;20068;-45
2023/08/24 02:12:07;;;;;;;2.60;0.90;;;;;;;17.76;100.00;100704.25;5034861;28;20025;-45
2023/08/24 02:14:32;;;;;;;2.70;0.55;;;;;;;17.77;100.00;100714.75;5028892;28;20033;-44
2023/08/24 02:16:57;;;;;;;2.92;0.20;;;;;;;17.84;100.00;100731.59;5035813;28;20024;-44
2023/08/24 02:19:23;;;;;;;4.05;1.35;;;;;;;17.84;100.00;100741.50;5037867;28;20630;-45
2023/08/24 02:21:48;;;;;;;2.65;1.02;;;;;;;17.84;100.00;100747.69;5037259;28;20025;-47
2023/08/24 02:24:13;;;;;;;0.38;0.25;;;;;;;17.88;100.00;100742.66;5035284;28;20033;-45
2023/08/24 02:26:39;;;;;;;6.57;0.40;;;;;;;17.81;100.00;100748.16;5037337;28;20033;-43
2023/08/24 02:29:04;;;;;;;1.23;0.98;;;;;;;17.64;100.00;100744.47;5030309;28;20433;-47
2023/08/24 02:31:30;;;;;;;2.85;0.17;;;;;;;17.58;100.00;100753.44;5038710;28;20054;-45
2023/08/24 02:33:55;;;;;;;1.80;0.73;;;;;;;17.49;100.00;100734.19;5034137;28;20609;-43
2023/08/24 02:36:21;;;;;;;1.25;0.90;;;;;;;17.35;100.00;100732.78;5040145;28;20561;-46
2023/08/24 02:38:46;;;;;;;2.38;0.90;;;;;;;17.33;100.00;100743.72;5028875;28;20070;-48
2023/08/24 02:41:14;;;;;;;11.07;1.35;;;;;;;17.33;100.00;100735.69;5034063;28;20036;-47
2023/08/24 02:43:39;;;;;;;4.97;1.70;;;;;;;17.31;100.00;100743.13;5040300;28;20210;-46
2023/08/24 02:46:09;;;;;;;0.50;0.50;;;;;;;17.35;100.00;100738.16;5029551;28;20127;-45
2023/08/24 02:48:35;;;;;;;1.55;0.40;;;;;;;17.41;100.00;100750.63;5029021;28;20036;-43
2023/08/24 02:51:02;;;;;;;6.13;0.38;;;;;;;17.32;100.00;100741.25;5037165;28;20068;-45
2023/08/24 02:53:28;;;;;;;1.40;0.73;;;;;;;17.21;100.00;100732.97;5039836;28;20113;-45
2023/08/24 02:55:55;;;;;;;0.95;0.70;;;;;;;17.20;100.00;100725.16;5037671;28;20119;-46
2023/08/24 02:58:21;;;;;;;1.65;0.70;;;;;;;17.26;100.00;100705.47;5033871;28;20382;-46
2023/08/24 03:00:47;;;;;;;0.40;0.28;;;;;;;17.34;100.00;100696.28;5034377;28;20021;-45
2023/08/24 03:03:14;;;;;;;1.10;0.43;;;;;;;17.17;100.00;100675.53;5038851;28;20053;-43
2023/08/24 03:05:40;;;;;;;0.98;0.32;;;;;;;17.12;100.00;100678.09;5039463;28;20098;-49
2023/08/24 03:08:05;;;;;;;1.83;0.52;;;;;;;17.02;100.00;100685.84;5031645;28;20037;-48
2023/08/24 03:10:34;;;;;;;1.65;0.55;;;;;;;17.20;100.00;100688.47;5042859;28;20064;-44
2023/08/24 03:12:59;;;;;;;0.47;0.47;;;;;;;17.41;100.00;100688.97;5045293;28;20389;-44
2023/08/24 03:15:25;;;;;;;2.03;0.45;;;;;;;17.52;100.00;100674.75;5037484;28;20052;-44
2023/08/24 03:17:52;;;;;;;0.73;0.35;;;;;;;17.55;100.00;100673.47;5043589;28;20037;-45
2023/08/24 03:20:18;;;;;;;5.28;0.60;;;;;;;17.53;100.00;100667.53;5043670;28;20033;-46
2023/08/24 03:22:43;;;;;;;0.80;0.40;;;;;;;17.50;100.00;100676.03;5045943;28;20024;-48
2023/08/24 03:25:09;;;;;;;2.22;0.52;;;;;;;17.45;100.00;100695.50;5031257;28;20026;-45
2023/08/24 03:27:35;;;;;;;2.40;0.47;;;;;;;17.38;100.00;100700.97;5038480;28;20363;-45
2023/08/24 03:30:00;;;;;;;1.20;0.90;;;;;;;17.37;100.00;100703.88;5042030;28;20036;-45
2023/08/24 03:32:25;;;;;;;0.45;0.40;;;;;;;17.43;100.00;100713.69;5029314;28;20493;-46
2023/08/24 03:34:51;;;;;;;0.40;0.40;;;;;;;17.54;100.00;100709.38;5038295;28;20631;-45
2023/08/24 03:37:16;;;;;;;0.40;0.40;;;;;;;17.60;100.00;100703.09;5034204;28;20041;-45
2023/08/24 03:39:42;;;;;;;4.15;0.82;;;;;;;17.58;100.00;100692.59;5036160;28;20118;-43
2023/08/24 03:42:07;;;;;;;1.95;0.88;;;;;;;17.61;100.00;100683.28;5043524;28;20037;-43
2023/08/24 03:44:33;;;;;;;0.65;0.20;;;;;;;17.64;100.00;100672.09;5048720;28;20028;-46
2023/08/24 03:46:59;;;;;;;1.13;0.95;;;;;;;17.57;100.00;100666.81;5034901;28;20062;-45
2023/08/24 03:49:25;;;;;;;2.10;0.65;;;;;;;17.56;100.00;100651.81;5035295;28;20025;-44
2023/08/24 03:51:51;;;;;;;1.05;0.30;;;;;;;17.64;100.00;100648.78;5037293;28;20036;-46
2023/08/24 03:54:17;;;;;;;4.25;0.40;;;;;;;17.67;100.00;100640.25;5044896;28;20029;-44
2023/08/24 03:56:42;;;;;;;3.10;0.63;;;;;;;17.63;100.00;100632.91;5036197;28;20029;-48
2023/08/24 03:59:08;;;;;;;1.35;0.65;;;;;;;17.61;100.00;100633.16;5041570;28;20037;-46
2023/08/24 04:01:33;;;;;;;1.33;0.90;;;;;;;17.61;100.00;100651.13;5038989;28;20044;-48
2023/08/24 04:03:59;;;;;;;3.63;1.58;;;;;;;17.63;100.00;100647.16;5031878;28;20034;-44
2023/08/24 04:06:24;;;;;;;1.20;0.90;;;;;;;17.71;100.00;100639.78;5040127;28;20029;-49
2023/08/24 04:08:49;;;;;;;1.58;0.70;;;;;;;17.73;100.00;100640.38;5039961;28;20110;-45
2023/08/24 04:11:15;;;;;;;4.28;1.05;;;;;;;17.80;100.00;100655.31;5032864;28;20029;-45
2023/08/24 04:13:40;;;;;;;1.73;0.52;;;;;;;17.66;100.00;100654.72;5043437;28;20751;-46
2023/08/24 04:16:05;;;;;;;1.42;0.70;;;;;;;17.70;100.00;100659.63;5036892;28;20439;-47
2023/08/24 04:18:31;;;;;;;0.95;0.55;;;;;;;17.79;100.00;100666.28;5040712;28;20036;-46
2023/08/24 04:20:56;;;;;;;1.27;0.35;;;;;;;17.83;100.00;100654.03;5042938;28;20029;-44
2023/08/24 04:23:26;;;;;;;1.42;0.93;;;;;;;17.92;100.00;100668.72;5039882;28;20029;-46
2023/08/24 04:25:52;;;;;;;1.02;0.73;;;;;;;17.99;100.00;100669.44;5032836;28;20583;-44
2023/08/24 04:28:17;;;;;;;1.90;0.35;;;;;;;18.11;100.00;100664.03;5041965;28;20095;-45
2023/08/24 04:30:50;;;;;;;0.57;0.40;;;;;;;18.12;100.00;100644.19;5036624;28;20029;-43
2023/08/24 04:33:15;;;;;;;1.48;0.43;;;;;;;18.08;100.00;100626.94;5045930;28;20033;-46
2023/08/24 04:35:40;;;;;;;2.40;0.75;;;;;;;18.05;100.00;100628.22;5036234;28;20159;-43
2023/08/24 04:38:06;;;;;;;4.03;0.50;;;;;;;18.09;100.00;100636.63;5035768;28;20112;-48
2023/08/24 04:40:54;;;;;;;0.60;0.43;;;;;;;18.08;100.00;100659.94;5044726;28;20508;-43
2023/08/24 04:43:21;;;;;;;2.75;0.57;;;;;;;18.12;100.00;100656.78;5033364;28;20508;-44
2023/08/24 04:45:48;;;;;;;2.60;0.82;;;;;;;18.12;100.00;100643.38;5043221;28;20043;-50
2023/08/24 04:48:14;;;;;;;3.80;0.98;;;;;;;18.14;100.00;100652.00;5033784;28;20043;-43
2023/08/24 04:50:42;;;;;;;0.75;0.47;;;;;;;18.13;100.00;100653.06;5042422;28;20184;-46
2023/08/24 04:53:07;;;;;;;3.75;1.15;;;;;;;18.13;100.00;100647.69;5040297;28;20029;-46
2023/08/24 04:55:32;;;;;;;1.50;0.80;;;;;;;17.97;100.00;100647.38;5042051;28;20029;-47
2023/08/24 04:57:57;;;;;;;2.17;0.40;;;;;;;17.75;100.00;100643.63;5032905;28;20037;-45
2023/08/24 05:00:23;;;;;;;3.78;0.77;;;;;;;17.71;100.00;100627.22;5043940;28;20115;-47
2023/08/24 05:02:48;;;;;;;5.22;0.82;;;;;;;17.72;100.00;100625.34;5054127;28;20186;-47
2023/08/24 05:05:13;;;;;;;3.30;0.80;;;;;;;17.77;100.00;100628.13;5042839;28;20037;-45
2023/08/24 05:07:40;;;;;;;2.55;0.55;;;;;;;17.80;100.00;100609.72;5035277;28;20044;-48
2023/08/24 05:10:06;;;;;;;1.30;0.88;;;;;;;17.82;100.00;100607.63;5034841;28;20640;-50
2023/08/24 05:12:33;;;;;;;3.75;0.95;;;;;;;17.83;100.00;100600.41;5032995;28;20045;-45
2023/08/24 05:14:59;;;;;;;0.50;0.47;;;;;;;17.91;100.00;100597.34;5037385;28;20037;-47
2023/08/24 05:17:26;;;;;;;2.85;0.93;;;;;;;17.88;100.00;100600.50;5037423;28;20086;-46
2023/08/24 05:19:53;;;;;;;4.30;0.40;;;;;;;17.87;100.00;100599.69;5031459;28;20084;-47
2023/08/24 05:22:18;;;;;;;1.75;0.65;;;;;;;18.00;100.00;100612.03;5033800;28;20466;-43
2023/08/24 05:24:44;;;;;;;5.72;1.50;;;;;;;18.05;100.00;100603.28;5032635;28;20033;-45
2023/08/24 05:27:09;;;;;;;1.27;0.52;;;;;;;18.09;100.00;100566.84;5032006;28;20094;-44
2023/08/24 05:29:34;;;;;;;2.30;1.95;;;;;;;18.17;100.00;100566.47;5038325;28;20035;-43
2023/08/24 05:31:59;;;;;;;3.67;0.73;;;;;;;18.12;100.00;100573.59;5034077;28;20367;-44
2023/08/24 05:34:25;;;;;;;3.08;0.55;;;;;;;18.09;100.00;100591.81;5039957;28;20100;-47
2023/08/24 05:36:50;;;;;;;4.88;1.48;;;;;;;18.05;100.00;100616.69;5040874;28;20063;-44
2023/08/24 05:39:16;;;;;;;1.75;0.77;;;;;;;18.01;100.00;100656.56;5037256;28;20387;-49
2023/08/24 05:41:41;;;;;;;1.45;0.55;;;;;;;17.98;100.00;100654.38;5039662;28;20037;-45
2023/08/24 05:44:06;;;;;;;2.50;0.63;;;;;;;18.07;100.00;100617.25;5040760;28;20469;-44
2023/08/24 05:46:32;;;;;;;0.95;0.40;;;;;;;18.14;100.00;100574.19;5046499;28;20500;-49
2023/08/24 05:48:59;;;;;;;1.02;0.80;;;;;;;18.11;100.00;100607.69;5032979;28;20561;-48
2023/08/24 05:51:25;;;;;;;3.33;0.85;;;;;;;18.26;100.00;100615.22;5032804;28;20027;-43
2023/08/24 05:53:55;;;;;;;0.82;0.50;;;;;;;18.49;100.00;100622.38;5031575;28;20029;-46
2023/08/24 05:56:23;;;;;;;1.35;0.75;;;;;;;18.64;100.00;100624.50;5035582;28;20041;-46
2023/08/24 05:58:49;;;;;;;1.08;0.55;;;;;;;18.76;100.00;100619.94;5036588;28;20033;-46
2023/08/24 06:01:14;;;;;;;1.13;0.57;;;;;;;18.81;100.00;100611.97;5036018;28;20068;-45
2023/08/24 06:03:39;;;;;;;1.63;1.00;;;;;;;18.77;100.00;100600.09;5034162;28;20658;-48
2023/08/24 06:06:05;;;;;;;1.15;0.40;;;;;;;18.70;100.00;100607.44;5033625;28;20021;-48
2023/08/24 06:08:31;;;;;;;9.13;1.02;;;;;;;18.59;100.00;100627.13;5037062;28;20387;-46
2023/08/24 06:10:57;;;;;;;5.07;0.65;;;;;;;18.51;100.00;100631.81;5037779;28;20029;-47
2023/08/24 06:13:22;;;;;;;0.55;0.55;;;;;;;18.50;100.00;100640.91;5025677;28;20535;-44
2023/08/24 06:15:48;;;;;;;2.80;0.57;;;;;;;18.55;100.00;100632.16;5029574;28;20033;-45
2023/08/24 06:18:13;;;;;;;0.82;0.35;;;;;;;18.71;100.00;100615.25;5037552;28;20479;-43
2023/08/24 06:20:39;;;;;;;2.72;0.82;;;;;;;18.78;100.00;100601.72;5033753;28;20563;-44
2023/08/24 06:23:05;;;;;;;2.42;0.60;;;;;;;18.81;100.00;100614.66;5034600;28;20211;-47
2023/08/24 06:25:31;;;;;;;4.22;0.70;;;;;;;18.86;100.00;100614.75;5035602;28;20091;-45
2023/08/24 06:27:58;;;;;;;7.63;1.98;;;;;;;18.97;100.00;100610.34;5033501;28;20426;-48
2023/08/24 06:30:24;;;;;;;1.23;0.63;;;;;;;19.08;100.00;100606.78;5038096;28;20816;-45
2023/08/24 06:32:49;;;;;;;2.72;1.88;;;;;;;19.14;100.00;100595.06;5037310;28;20366;-45
2023/08/24 06:35:14;;;;;;;2.30;0.70;;;;;;;19.20;100.00;100571.75;5040711;28;20033;-48
2023/08/24 06:37:40;;;;;;;1.08;0.60;;;;;;;19.13;100.00;100590.75;5037671;28;20383;-45
2023/08/24 06:40:06;;;;;;;0.80;0.43;;;;;;;19.13;100.00;100582.69;5035174;28;20497;-48
2023/08/24 06:42:31;;;;;;;2.00;0.50;;;;;;;19.28;100.00;100581.28;5041878;28;20025;-47
2023/08/24 06:44:56;;;;;;;1.73;0.75;;;;;;;19.39;100.00;100581.19;5035536;28;20604;-49
2023/08/24 06:47:22;;;;;;;2.35;0.50;;;;;;;19.46;100.00;100577.50;5039667;28;20231;-45
2023/08/24 06:49:47;;;;;;;5.07;1.48;;;;;;;19.51;100.00;100577.56;5030614;28;20033;-47
2023/08/24 06:52:13;;;;;;;2.70;1.35;;;;;;;19.36;100.00;100579.00;5038003;28;20136;-46
2023/08/24 06:54:38;;;;;;;0.82;0.82;;;;;;;19.25;100.00;100582.56;5026157;28;20390;-44
2023/08/24 06:57:04;;;;;;;2.33;0.75;;;;;;;19.40;100.00;100590.88;5030524;28;20029;-46
2023/08/24 06:59:29;;;;;;;2.15;1.35;;;;;;;19.53;100.00;100575.47;5032782;28;20032;-46
2023/08/24 07:01:55;;;;;;;1.00;0.50;;;;;;;19.69;100.00;100580.00;5037995;28;20417;-46
2023/08/24 07:04:20;;;;;;;2.97;1.10;;;;;;;19.80;100.00;100560.25;5043041;28;20034;-45
2023/08/24 07:06:46;;;;;;;4.18;1.52;;;;;;;19.90;100.00;100553.34;5031659;28;20025;-47
2023/08/24 07:09:11;;;;;;;1.33;1.05;;;;;;;19.92;100.00;100567.38;5042520;28;20033;-45
2023/08/24 07:11:37;;;;;;;1.08;0.60;;;;;;;19.91;100.00;100566.56;5040233;28;20029;-48
2023/08/24 07:14:02;;;;;;;2.13;1.20;;;;;;;19.85;100.00;100566.75;5030585;28;20401;-46
2023/08/24 07:16:28;;;;;;;0.95;0.25;;;;;;;19.79;100.00;100566.69;5036009;28;20024;-43
2023/08/24 07:18:53;;;;;;;1.45;0.35;;;;;;;19.83;100.00;100553.56;5038669;28;20041;-44
2023/08/24 07:21:18;;;;;;;1.08;0.60;;;;;;;19.92;100.00;100559.31;5031037;28;20704;-49
2023/08/24 07:23:44;;;;;;;3.88;0.75;;;;;;;20.09;100.00;100546.59;5040382;28;20021;-48
2023/08/24 07:26:09;;;;;;;2.25;0.47;;;;;;;20.23;100.00;100520.88;5039306;28;20514;-46
2023/08/24 07:28:35;;;;;;;1.05;0.75;;;;;;;20.32;100.00;100539.31;5036032;28;20020;-44
2023/08/24 07:31:07;;;;;;;1.58;1.10;;;;;;;20.31;100.00;100564.59;5042216;28;20120;-45
2023/08/24 07:33:33;;;;;;;1.65;0.70;;;;;;;20.36;100.00;100556.56;5034687;28;20126;-46
2023/08/24 07:35:58;;;;;;;3.75;0.60;;;;;;;20.44;100.00;100532.66;5029934;28;20079;-48
2023/08/24 07:38:23;;;;;;;2.03;0.98;;;;;;;20.65;100.00;100527.50;5052097;28;20397;-49
2023/08/24 07:40:49;;;;;;;2.88;0.73;;;;;;;20.71;100.00;100552.63;5043868;28;20036;-50
2023/08/24 07:43:14;;;;;;;2.33;1.40;;;;;;;20.81;100.00;100547.31;5034810;28;20576;-45
2023/08/24 07:45:40;;;;;;;2.25;0.60;;;;;;;20.94;100.00;100524.50;5043339;28;20124;-49
2023/08/24 07:48:06;;;;;;;1.35;0.57;;;;;;;21.03;100.00;100496.78;5044668;28;20469;-48
2023/08/24 07:50:32;;;;;;;2.25;0.55;;;;;;;21.11;100.00;100528.63;5040969;28;20033;-47
2023/08/24 07:52:57;;;;;;;1.75;0.88;;;;;;;21.32;100.00;100523.38;5045321;28;20071;-44
2023/08/24 07:55:22;;;;;;;6.40;1.33;;;;;;;21.42;100.00;100530.75;5035694;28;20030;-45
2023/08/24 07:57:48;;;;;;;4.90;1.13;;;;;;;21.61;100.00;100518.44;5040355;28;20666;-46
2023/08/24 08:00:14;;;;;;;1.20;0.85;;;;;;;21.81;100.00;100496.09;5038844;28;20120;-46
2023/08/24 08:02:40;;;;;;;1.67;0.60;;;;;;;21.97;100.00;100505.88;5050077;28;20045;-48
2023/08/24 08:05:07;;;;;;;3.88;0.70;;;;;;;22.09;100.00;100496.72;5029794;28;20029;-45
2023/08/24 08:07:33;;;;;;;1.70;0.75;;;;;;;22.05;100.00;100482.16;5042114;28;20083;-47
2023/08/24 08:09:58;;;;;;;0.77;0.70;;;;;;;22.03;100.00;100479.69;5040196;28;20032;-48
2023/08/24 08:12:23;;;;;;;2.63;1.35;;;;;;;22.08;100.00;100479.72;5045738;28;20076;-46
2023/08/24 08:14:49;;;;;;;1.27;1.02;;;;;;;22.15;100.00;100463.22;5034725;28;20108;-45
2023/08/24 08:17:14;;;;;;;1.90;1.45;;;;;;;22.08;100.00;100457.31;5038801;28;20527;-49
2023/08/24 08:19:39;;;;;;;2.00;0.82;;;;;;;22.12;100.00;100432.22;5035166;28;20458;-47
2023/08/24 08:22:05;;;;;;;3.83;0.63;;;;;;;22.15;100.00;100426.25;5037375;28;20030;-48
2023/08/24 08:24:30;;;;;;;3.33;1.35;;;;;;;22.12;100.00;100442.19;5043376;28;20040;-47
2023/08/24 08:26:56;;;;;;;2.85;0.98;;;;;;;22.14;100.00;100442.72;5044406;28;20175;-44
2023/08/24 08:29:22;;;;;;;4.18;0.73;;;;;;;22.03;100.00;100423.00;5041097;28;20473;-49
2023/08/24 08:31:47;;;;;;;3.67;1.35;;;;;;;22.09;100.00;100388.72;5038592;28;20028;-45
2023/08/24 08:34:12;;;;;;;3.25;1.90;;;;;;;22.15;100.00;100417.31;5040622;28;20036;-44
2023/08/24 08:36:38;;;;;;;1.02;0.93;;;;;;;22.12;100.00;100429.50;5033273;28;20032;-50
2023/08/24 08:39:04;;;;;;;5.20;1.73;;;;;;;22.17;100.00;100415.19;5029650;28;20025;-47
2023/08/24 08:41:43;;;;;;;2.55;0.70;;;;;;;22.19;100.00;100440.06;5039508;28;20071;-47
2023/08/24 08:44:11;;;;;;;1.65;0.95;;;;;;;22.31;100.00;100446.00;5036732;28;20385;-47
2023/08/24 08:46:39;;;;;;;4.82;0.75;;;;;;;22.43;100.00;100451.97;5039283;28;20114;-49
2023/08/24 08:49:07;;;;;;;5.45;1.08;;;;;;;22.53;100.00;100463.81;5028863;28;20029;-49
2023/08/24 08:51:34;;;;;;;6.03;1.13;;;;;;;22.59;100.00;100481.69;5038883;28;20032;-46
2023/08/24 08:54:00;;;;;;;2.72;1.25;;;;;;;22.67;100.00;100491.94;5041020;28;20020;-46
2023/08/24 08:56:26;;;;;;;1.77;0.82;;;;;;;22.75;100.00;100493.28;5044038;28;20040;-46
2023/08/24 08:58:52;;;;;;;2.28;1.17;;;;;;;22.84;100.00;100480.81;5039650;28;20032;-46
2023/08/24 09:01:19;;;;;;;3.65;1.42;;;;;;;22.97;100.00;100477.59;5050636;28;20030;-47
2023/08/24 09:03:45;;;;;;;3.65;1.80;;;;;;;23.22;100.00;100482.13;5038251;28;20044;-47
2023/08/24 09:06:10;;;;;;;3.05;1.30;;;;;;;23.46;100.00;100470.66;5039962;28;20406;-47
2023/08/24 09:08:36;;;;;;;6.30;1.83;;;;;;;23.62;100.00;100474.13;5045478;28;20389;-49
2023/08/24 09:11:03;;;;;;;4.10;1.55;;;;;;;23.67;100.00;100469.50;5039705;28;20028;-47
2023/08/24 09:13:29;;;;;;;4.43;1.40;;;;;;;23.76;100.00;100469.75;5025778;28;20501;-49
2023/08/24 09:16:02;;;;;;;2.00;0.68;;;;;;;23.84;100.00;100454.81;5033263;28;20025;-49
2023/08/24 09:18:35;;;;;;;5.10;1.17;;;;;;;23.91;100.00;100455.31;5040653;28;20040;-45
2023/08/24 09:21:08;;;;;;;6.53;1.10;;;;;;;24.14;100.00;100461.94;5052932;28;20033;-46
2023/08/24 09:23:33;;;;;;;2.75;1.08;;;;;;;24.32;100.00;100460.47;5041449;28;20815;-45
2023/08/24 09:25:58;;;;;;;1.52;1.42;;;;;;;24.32;100.00;100446.91;5029786;28;20108;-45
2023/08/24 09:28:24;;;;;;;4.30;0.70;;;;;;;24.53;100.00;100440.25;5043548;28;20382;-49
2023/08/24 09:30:56;;;;;;;1.75;0.77;;;;;;;24.70;100.00;100433.56;5044571;28;20035;-48
2023/08/24 09:33:25;;;;;;;3.53;1.33;;;;;;;25.02;100.00;100425.63;5031850;28;20033;-44
2023/08/24 09:36:04;;;;;;;1.25;0.70;;;;;;;25.31;100.00;100422.06;5034604;28;20040;-45
2023/08/24 09:38:29;;;;;;;5.68;1.08;;;;;;;25.44;100.00;100410.50;5037054;28;20123;-44
2023/08/24 09:40:55;;;;;;;9.52;1.38;;;;;;;25.63;100.00;100402.34;5031740;28;20029;-45
2023/08/24 09:43:22;;;;;;;4.68;1.45;;;;;;;25.73;100.00;100411.47;5030034;28;20025;-47
2023/08/24 09:45:56;;;;;;;5.80;0.75;;;;;;;25.73;100.00;100416.88;5033882;28;20082;-46
2023/08/24 09:48:22;;;;;;;4.47;1.02;;;;;;;25.83;100.00;100408.59;5033776;28;20035;-47
2023/08/24 09:50:51;;;;;;;1.83;0.65;;;;;;;25.94;100.00;100414.69;5044284;28;20025;-49
2023/08/24 09:53:22;;;;;;;1.58;0.60;;;;;;;26.06;100.00;100405.00;5029706;28;20226;-49
2023/08/24 09:56:01;;;;;;;3.15;0.68;;;;;;;26.27;100.00;100405.47;5032886;28;20043;-47
2023/08/24 09:58:27;;;;;;;5.72;1.02;;;;;;;26.38;100.00;100413.44;5029886;28;20090;-46
2023/08/24 10:00:54;;;;;;;1.35;0.30;;;;;;;26.30;100.00;100418.44;5030688;28;20463;-46
2023/08/24 10:03:21;;;;;;;1.55;0.52;;;;;;;26.24;100.00;100422.38;5025285;28;20084;-46
2023/08/24 10:05:53;;;;;;;1.15;0.63;;;;;;;26.36;100.00;100419.19;5029831;28;20381;-49
2023/08/24 10:08:22;;;;;;;5.45;0.70;;;;;;;26.32;100.00;100410.81;5030730;28;20478;-49
2023/08/24 10:10:52;;;;;;;4.88;1.33;;;;;;;26.36;100.00;100413.75;5029495;28;20563;-50
2023/08/24 10:13:23;;;;;;;0.82;0.60;;;;;;;26.40;100.00;100420.19;5025550;28;20544;-48
2023/08/24 10:15:50;;;;;;;1.23;0.40;;;;;;;26.71;100.00;100420.47;5025696;28;20064;-48
2023/08/24 10:18:16;;;;;;;1.67;0.68;;;;;;;26.67;100.00;100413.25;5026669;28;20038;-46
2023/08/24 10:20:42;;;;;;;2.10;0.93;;;;;;;26.57;100.00;100414.22;5032803;28;20060;-45
2023/08/24 10:23:12;;;;;;;1.30;0.57;;;;;;;26.41;100.00;100421.00;5027917;28;20490;-45
2023/08/24 10:25:39;;;;;;;1.63;0.38;;;;;;;26.56;100.00;100420.75;5026986;28;20386;-47
2023/08/24 10:28:06;;;;;;;2.10;0.40;;;;;;;26.77;100.00;100426.66;5028919;28;20064;-46
2023/08/24 10:30:34;;;;;;;2.28;0.50;;;;;;;27.12;100.00;100424.31;5024945;28;20498;-51
2023/08/24 10:32:59;;;;;;;1.55;0.47;;;;;;;27.41;100.00;100416.66;5029278;28;20147;-47
2023/08/24 10:35:26;;;;;;;3.10;0.35;;;;;;;27.43;100.00;100412.84;5031117;28;20068;-51
2023/08/24 10:37:53;;;;;;;1.08;0.32;;;;;;;27.29;100.00;100412.88;5032073;28;20040;-50
2023/08/24 10:40:32;;;;;;;2.22;0.47;;;;;;;27.13;100.00;100407.72;5024019;28;20067;-48
2023/08/24 10:42:58;;;;;;;1.40;0.70;;;;;;;27.28;100.00;100403.06;5023874;28;20056;-49
2023/08/24 10:45:25;;;;;;;3.13;0.63;;;;;;;27.59;100.00;100406.72;5027475;28;20083;-46
2023/08/24 10:47:53;;;;;;;0.90;0.32;;;;;;;27.71;98.72;100408.91;5033759;28;20181;-47
2023/08/24 10:50:19;;;;;;;1.98;0.20;;;;;;;27.54;96.39;100408.75;5028066;28;20121;-52
2023/08/24 10:52:45;;;;;;;1.40;0.38;;;;;;;27.53;96.85;100407.97;5031158;28;20618;-50
2023/08/24 10:55:27;;;;;;;1.40;0.32;;;;;;;27.54;93.82;100409.56;5028790;28;20036;-47
2023/08/24 10:57:57;;;;;;;0.85;0.55;;;;;;;27.88;95.20;100412.91;5031270;28;20051;-48
2023/08/24 11:00:26;;;;;;;4.15;0.30;;;;;;;28.15;94.04;100412.00;5031129;28;20036;-51
2023/08/24 11:02:52;;;;;;;2.63;0.93;;;;;;;28.38;93.57;100419.03;5029974;28;20041;-48
2023/08/24 11:05:25;;;;;;;1.73;0.60;;;;;;;28.42;91.36;100400.13;5025564;28;20029;-48
2023/08/24 11:08:02;;;;;;;1.35;0.55;;;;;;;28.66;89.89;100406.06;5029326;28;20115;-49
2023/08/24 11:10:46;;;;;;;1.27;0.43;;;;;;;28.69;89.12;100407.38;5028190;28;20167;-48
2023/08/24 11:13:16;;;;;;;2.92;0.57;;;;;;;29.05;88.76;100399.00;5026466;28;20036;-47
2023/08/24 11:15:45;;;;;;;0.43;0.20;;;;;;;29.27;84.90;100398.09;5032519;28;20112;-50